createdAt,value
2023-02-24T00:00:34.791Z,6.45
2023-02-24T00:03:06.439Z,4.68
2023-02-24T00:05:40.143Z,8.93
2023-02-24T00:08:07.649Z,10.02
2023-02-24T00:10:37.808Z,20.63
2023-02-24T00:13:05.375Z,7.65
2023-02-24T00:15:32.907Z,10.70
2023-02-24T00:18:05.968Z,10.82
2023-02-24T00:20:33.913Z,7.10
2023-02-24T00:23:01.061Z,4.68
2023-02-24T00:25:28.311Z,4.55
2023-02-24T00:28:01.881Z,13.10
2023-02-24T00:30:31.751Z,4.22
2023-02-24T00:33:01.673Z,9.48
2023-02-24T00:35:29.749Z,10.35
2023-02-24T00:37:57.173Z,3.60
2023-02-24T00:40:24.700Z,9.23
2023-02-24T00:42:52.338Z,8.43
2023-02-24T00:45:19.581Z,3.38
2023-02-24T00:47:46.974Z,5.35
2023-02-24T00:50:14.466Z,12.30
2023-02-24T00:52:43.557Z,27.52
2023-02-24T00:55:15.439Z,2.65
2023-02-24T00:57:42.695Z,7.10
2023-02-24T01:00:15.720Z,9.18
2023-02-24T01:02:45.032Z,11.82
2023-02-24T01:05:13.363Z,9.10
2023-02-24T01:07:40.673Z,5.95
2023-02-24T01:10:09.002Z,5.53
2023-02-24T01:12:50.047Z,8.45
2023-02-24T01:15:19.216Z,5.00
2023-02-24T01:17:46.719Z,6.35
2023-02-24T01:20:16.969Z,4.88
2023-02-24T01:22:50.123Z,8.70
2023-02-24T01:25:20.546Z,9.73
2023-02-24T01:27:48.097Z,8.00
2023-02-24T01:30:18.727Z,5.78
2023-02-24T01:32:48.681Z,6.28
2023-02-24T01:35:16.782Z,5.78
2023-02-24T01:37:45.750Z,2.70
2023-02-24T01:40:21.983Z,9.85
2023-02-24T01:42:49.713Z,5.35
2023-02-24T01:45:23.632Z,7.53
2023-02-24T01:47:51.818Z,3.42
2023-02-24T01:50:22.384Z,7.00
2023-02-24T01:52:53.274Z,2.72
2023-02-24T01:55:25.703Z,23.17
2023-02-24T01:57:54.176Z,10.10
2023-02-24T02:00:38.165Z,4.63
2023-02-24T02:03:25.215Z,7.75
2023-02-24T02:05:56.422Z,12.95
2023-02-24T02:08:25.086Z,8.75
2023-02-24T02:10:59.246Z,8.02
2023-02-24T02:13:30.950Z,8.13
2023-02-24T02:16:17.585Z,10.82
2023-02-24T02:19:14.137Z,7.68
2023-02-24T02:22:29.078Z,5.78
2023-02-24T02:25:02.363Z,5.63
2023-02-24T02:27:58.048Z,5.47
2023-02-24T02:30:28.775Z,2.63
2023-02-24T02:33:27.749Z,5.45
2023-02-24T02:36:18.946Z,9.50
2023-02-24T02:38:54.624Z,8.23
2023-02-24T02:41:45.293Z,6.32
2023-02-24T02:44:25.091Z,5.70
2023-02-24T02:47:15.562Z,7.07
2023-02-24T02:49:52.441Z,10.20
2023-02-24T02:52:45.747Z,20.70
2023-02-24T02:55:18.867Z,4.63
2023-02-24T02:57:49.774Z,11.85
2023-02-24T03:00:25.329Z,11.57
2023-02-24T03:02:56.597Z,4.75
2023-02-24T03:05:30.408Z,8.40
2023-02-24T03:08:00.835Z,10.00
2023-02-24T03:10:30.276Z,7.93
2023-02-24T03:13:03.841Z,7.85
2023-02-24T03:15:33.382Z,12.75
2023-02-24T03:18:10.722Z,15.98
2023-02-24T03:21:01.904Z,10.18
2023-02-24T03:23:32.371Z,4.18
2023-02-24T03:26:20.197Z,11.38
2023-02-24T03:29:19.316Z,6.43
2023-02-24T03:32:14.323Z,10.38
2023-02-24T03:35:19.313Z,12.20
2023-02-24T03:37:50.238Z,13.82
2023-02-24T03:40:18.204Z,6.30
2023-02-24T03:42:51.254Z,8.93
2023-02-24T03:45:19.632Z,4.88
2023-02-24T03:47:47.522Z,9.05
2023-02-24T03:50:20.656Z,9.70
2023-02-24T03:53:02.046Z,10.60
2023-02-24T03:55:35.085Z,7.82
2023-02-24T03:58:40.347Z,7.07
2023-02-24T04:01:19.938Z,7.88
2023-02-24T04:03:52.342Z,9.38
2023-02-24T04:06:56.419Z,6.32
2023-02-24T04:09:59.585Z,6.70
2023-02-24T04:12:47.453Z,9.98
2023-02-24T04:15:37.919Z,2.45
2023-02-24T04:18:11.836Z,4.60
2023-02-24T04:20:40.828Z,9.27
2023-02-24T04:23:13.100Z,5.03
2023-02-24T04:25:45.373Z,5.63
2023-02-24T04:28:13.835Z,3.50
2023-02-24T04:30:49.939Z,6.97
2023-02-24T04:33:17.726Z,7.63
2023-02-24T04:35:46.787Z,7.43
2023-02-24T04:38:14.432Z,5.93
2023-02-24T04:40:42.968Z,4.30
2023-02-24T04:43:10.487Z,12.02
2023-02-24T04:45:43.120Z,7.75
2023-02-24T04:48:13.494Z,2.92
2023-02-24T04:50:55.257Z,7.45
2023-02-24T04:53:27.612Z,5.55
2023-02-24T04:55:56.776Z,8.63
2023-02-24T04:58:29.990Z,7.43
2023-02-24T05:00:57.621Z,9.60
2023-02-24T05:03:30.810Z,4.65
2023-02-24T05:06:00.518Z,12.90
2023-02-24T05:08:29.846Z,17.58
2023-02-24T05:10:58.942Z,3.17
2023-02-24T05:13:29.384Z,7.68
2023-02-24T05:16:06.410Z,5.32
2023-02-24T05:18:37.438Z,3.95
2023-02-24T05:21:30.860Z,5.78
2023-02-24T05:23:59.648Z,3.35
2023-02-24T05:26:27.592Z,16.70
2023-02-24T05:28:56.823Z,6.20
2023-02-24T05:31:29.232Z,6.50
2023-02-24T05:34:02.905Z,7.28
2023-02-24T05:36:33.676Z,8.90
2023-02-24T05:39:08.121Z,14.55
2023-02-24T05:41:42.387Z,5.97
2023-02-24T05:44:17.124Z,6.73
2023-02-24T05:46:47.206Z,15.77
2023-02-24T05:49:24.005Z,19.35
2023-02-24T05:51:55.485Z,7.03
2023-02-24T05:54:38.375Z,6.68
2023-02-24T05:57:12.260Z,12.70
2023-02-24T05:59:44.933Z,15.65
2023-02-24T06:02:15.319Z,9.27
2023-02-24T06:04:54.152Z,9.70
2023-02-24T06:07:25.183Z,11.65
2023-02-24T06:09:57.685Z,4.90
2023-02-24T06:12:34.130Z,6.70
2023-02-24T06:15:07.862Z,6.22
2023-02-24T06:17:35.740Z,8.77
2023-02-24T06:20:13.364Z,5.22
2023-02-24T06:22:42.711Z,13.18
2023-02-24T06:25:12.355Z,3.00
2023-02-24T06:27:39.649Z,3.95
2023-02-24T06:30:10.803Z,3.53
2023-02-24T06:32:38.265Z,7.55
2023-02-24T06:35:06.334Z,4.32
2023-02-24T06:37:33.629Z,7.03
2023-02-24T06:40:01.749Z,5.70
2023-02-24T06:42:29.158Z,4.63
2023-02-24T06:44:56.311Z,2.83
2023-02-24T06:47:25.945Z,11.68
2023-02-24T06:49:53.926Z,6.63
2023-02-24T06:52:21.342Z,7.55
2023-02-24T06:54:49.914Z,4.88
2023-02-24T06:57:18.110Z,6.32
2023-02-24T06:59:46.554Z,7.00
2023-02-24T07:02:13.931Z,12.75
2023-02-24T07:04:44.374Z,7.78
2023-02-24T07:07:15.136Z,3.35
2023-02-24T07:09:44.302Z,8.25
2023-02-24T07:12:12.910Z,14.48
2023-02-24T07:14:40.946Z,4.90
2023-02-24T07:17:08.655Z,4.82
2023-02-24T07:19:37.053Z,8.38
2023-02-24T07:22:05.121Z,11.10
2023-02-24T07:24:37.473Z,6.10
2023-02-24T07:27:07.669Z,7.13
2023-02-24T07:29:36.617Z,3.30
2023-02-24T07:32:09.391Z,5.47
2023-02-24T07:34:40.703Z,6.95
2023-02-24T07:37:10.026Z,1.73
2023-02-24T07:39:39.590Z,5.50
2023-02-24T07:42:09.754Z,4.05
2023-02-24T07:44:39.980Z,8.07
2023-02-24T07:47:08.645Z,6.10
2023-02-24T07:49:39.828Z,4.40
2023-02-24T07:52:08.412Z,5.32
2023-02-24T07:54:35.849Z,8.00
2023-02-24T07:57:02.944Z,11.85
2023-02-24T07:59:33.292Z,11.60
2023-02-24T08:02:05.055Z,11.60
2023-02-24T08:04:33.360Z,13.85
2023-02-24T08:07:03.599Z,6.45
2023-02-24T08:09:47.280Z,8.68
2023-02-24T08:12:22.214Z,4.53
2023-02-24T08:14:52.938Z,4.93
2023-02-24T08:17:22.500Z,19.73
2023-02-24T08:19:56.100Z,5.50
2023-02-24T08:22:26.152Z,8.63
2023-02-24T08:24:56.065Z,4.05
2023-02-24T08:27:28.164Z,5.30
2023-02-24T08:30:00.301Z,9.52
2023-02-24T08:32:38.049Z,3.75
2023-02-24T08:35:15.697Z,8.23
2023-02-24T08:37:48.352Z,11.07
2023-02-24T08:40:34.571Z,7.95
2023-02-24T08:43:16.386Z,8.10
2023-02-24T08:46:06.125Z,12.98
2023-02-24T08:48:42.512Z,5.85
2023-02-24T08:51:31.039Z,7.82
2023-02-24T08:54:00.483Z,9.10
2023-02-24T08:56:30.755Z,13.02
2023-02-24T08:59:08.170Z,10.55
2023-02-24T09:01:39.901Z,8.32
2023-02-24T09:04:10.310Z,6.22
2023-02-24T09:06:39.928Z,6.50
2023-02-24T09:09:21.495Z,13.80
2023-02-24T09:11:56.725Z,9.23
2023-02-24T09:14:39.437Z,11.60
2023-02-24T09:17:11.869Z,10.52
2023-02-24T09:19:48.729Z,6.63
2023-02-24T09:22:54.345Z,10.00
2023-02-24T09:25:22.101Z,7.80
2023-02-24T09:27:56.391Z,8.55
2023-02-24T09:30:36.643Z,8.40
2023-02-24T09:33:09.358Z,8.43
2023-02-24T09:35:37.193Z,10.40
2023-02-24T09:38:05.794Z,9.93
2023-02-24T09:40:40.799Z,9.43
2023-02-24T09:43:21.236Z,6.93
2023-02-24T09:46:02.529Z,19.23
2023-02-24T09:48:44.105Z,15.07
2023-02-24T09:51:29.187Z,5.07
2023-02-24T09:53:57.330Z,7.93
2023-02-24T09:56:42.802Z,6.40
2023-02-24T10:02:03.758Z,3.70
2023-02-24T10:05:07.565Z,4.65
2023-02-24T10:07:39.945Z,5.05
2023-02-24T10:10:28.943Z,4.90
2023-02-24T10:13:03.040Z,4.75
2023-02-24T10:15:57.042Z,6.63
2023-02-24T10:18:37.938Z,5.03
2023-02-24T10:21:15.952Z,9.77
2023-02-24T10:23:59.250Z,7.10
2023-02-24T10:27:00.079Z,3.38
2023-02-24T10:30:05.965Z,7.93
2023-02-24T10:32:59.309Z,4.00
2023-02-24T10:35:36.922Z,4.38
2023-02-24T10:38:05.779Z,3.72
2023-02-24T10:40:54.608Z,7.00
2023-02-24T10:43:30.593Z,4.18
2023-02-24T10:46:17.602Z,4.20
2023-02-24T10:49:02.122Z,2.38
2023-02-24T10:51:38.778Z,4.47
2023-02-24T10:54:24.901Z,2.95
2023-02-24T10:57:00.941Z,4.47
2023-02-24T10:59:35.312Z,2.35
2023-02-24T11:02:37.544Z,2.53
2023-02-24T11:05:37.691Z,3.67
2023-02-24T11:08:40.107Z,4.15
2023-02-24T11:11:25.980Z,4.28
2023-02-24T11:14:14.352Z,2.22
2023-02-24T11:17:07.818Z,2.65
2023-02-24T11:19:56.632Z,2.80
2023-02-24T11:22:36.535Z,3.03
2023-02-24T11:25:21.593Z,1.90
2023-02-24T11:27:53.133Z,4.70
2023-02-24T11:30:53.580Z,3.38
2023-02-24T11:33:52.258Z,4.00
2023-02-24T11:36:54.695Z,3.60
2023-02-24T11:39:40.709Z,3.58
2023-02-24T11:42:14.951Z,4.15
2023-02-24T11:44:52.458Z,2.73
2023-02-24T11:47:29.416Z,4.18
2023-02-24T11:50:20.712Z,5.10
2023-02-24T11:52:52.104Z,4.78
2023-02-24T11:55:43.760Z,3.60
2023-02-24T11:58:22.444Z,3.83
2023-02-24T12:01:10.583Z,5.22
2023-02-24T12:03:53.933Z,6.00
2023-02-24T12:07:06.806Z,4.25
2023-02-24T12:10:07.055Z,4.78
2023-02-24T12:13:08.848Z,21.95
2023-02-24T12:15:44.631Z,6.05
2023-02-24T12:18:40.016Z,5.28
2023-02-24T12:21:26.566Z,5.13
2023-02-24T12:23:54.018Z,8.13
2023-02-24T12:26:43.024Z,4.25
2023-02-24T12:29:42.713Z,6.50
2023-02-24T12:32:37.551Z,7.70
2023-02-24T12:35:56.095Z,4.65
2023-02-24T12:38:41.170Z,8.38
2023-02-24T12:41:37.463Z,12.90
2023-02-24T12:44:27.290Z,7.35
2023-02-24T12:47:05.638Z,7.38
2023-02-24T12:49:38.283Z,5.80
2023-02-24T12:52:38.568Z,5.93
2023-02-24T12:55:15.543Z,6.20
2023-02-24T12:58:11.616Z,6.20
2023-02-24T13:00:52.542Z,5.35
2023-02-24T13:03:51.880Z,6.38
2023-02-24T13:06:45.878Z,6.00
2023-02-24T13:09:13.197Z,9.07
2023-02-24T13:12:02.237Z,6.90
2023-02-24T13:14:32.535Z,9.65
2023-02-24T13:17:10.384Z,7.93
2023-02-24T13:19:44.716Z,7.85
2023-02-24T13:22:12.138Z,7.67
2023-02-24T13:25:05.331Z,8.85
2023-02-24T13:27:39.304Z,9.10
2023-02-24T13:30:12.755Z,7.97
2023-02-24T13:32:42.950Z,11.25
2023-02-24T13:35:16.409Z,18.38
2023-02-24T13:37:46.831Z,9.73
2023-02-24T13:40:17.024Z,7.80
2023-02-24T13:43:06.368Z,19.90
2023-02-24T13:45:42.192Z,14.73
2023-02-24T13:48:37.028Z,10.48
2023-02-24T13:51:29.838Z,16.40
2023-02-24T13:54:33.712Z,17.60
2023-02-24T13:57:46.992Z,11.60
2023-02-24T14:00:48.379Z,13.70
2023-02-24T14:03:25.607Z,15.10
2023-02-24T14:05:53.815Z,15.18
2023-02-24T14:08:30.107Z,15.05
2023-02-24T14:11:00.827Z,15.80
2023-02-24T14:13:34.440Z,20.38
2023-02-24T14:16:15.953Z,20.95
2023-02-24T14:18:43.314Z,15.88
2023-02-24T14:21:26.282Z,13.00
2023-02-24T14:24:03.091Z,14.73
2023-02-24T14:26:38.359Z,15.48
2023-02-24T14:31:36.195Z,12.77
2023-02-24T14:34:09.435Z,12.23
2023-02-24T14:36:42.488Z,10.73
2023-02-24T14:39:22.197Z,10.98
2023-02-24T14:41:50.581Z,10.35
2023-02-24T14:44:27.349Z,13.07
2023-02-24T14:46:59.652Z,11.27
2023-02-24T14:49:30.081Z,11.50
2023-02-24T14:52:03.414Z,10.68
2023-02-24T14:54:48.390Z,8.68
2023-02-24T14:57:20.350Z,15.70
2023-02-24T14:59:52.940Z,9.13
2023-02-24T15:02:25.809Z,7.22
2023-02-24T15:04:56.214Z,8.27
2023-02-24T15:07:34.227Z,6.72
2023-02-24T15:10:04.479Z,10.38
2023-02-24T15:12:47.085Z,14.77
2023-02-24T15:15:30.059Z,12.40
2023-02-24T15:18:09.717Z,10.52
2023-02-24T15:20:39.876Z,9.80
2023-02-24T15:23:26.803Z,13.45
2023-02-24T15:25:54.026Z,11.13
2023-02-24T15:28:26.678Z,10.82
2023-02-24T15:31:10.550Z,8.15
2023-02-24T15:33:41.983Z,9.13
2023-02-24T15:36:23.321Z,8.73
2023-02-24T15:39:01.755Z,10.13
2023-02-24T15:41:43.958Z,11.60
2023-02-24T15:44:32.469Z,12.80
2023-02-24T15:47:12.072Z,13.52
2023-02-24T15:49:39.564Z,7.72
2023-02-24T15:52:11.127Z,7.53
2023-02-24T15:54:42.802Z,7.22
2023-02-24T15:57:12.872Z,12.30
2023-02-24T15:59:40.789Z,14.98
2023-02-24T16:02:17.772Z,8.18
2023-02-24T16:04:45.020Z,10.07
2023-02-24T16:07:19.837Z,19.20
2023-02-24T16:09:49.768Z,7.05
2023-02-24T16:12:24.200Z,12.10
2023-02-24T16:14:57.733Z,12.53
2023-02-24T16:17:37.997Z,16.63
2023-02-24T16:20:31.708Z,10.18
2023-02-24T16:23:01.847Z,12.27
2023-02-24T16:25:31.715Z,7.95
2023-02-24T16:28:00.126Z,10.05
2023-02-24T16:30:30.785Z,19.90
2023-02-24T16:32:59.911Z,10.60
2023-02-24T16:35:28.482Z,13.90
2023-02-24T16:37:55.925Z,10.07
2023-02-24T16:40:28.570Z,17.83
2023-02-24T16:42:56.229Z,11.73
2023-02-24T16:45:28.963Z,6.78
2023-02-24T16:48:02.363Z,15.68
2023-02-24T16:50:43.198Z,10.23
2023-02-24T16:53:16.463Z,20.08
2023-02-24T16:55:44.381Z,9.00
2023-02-24T16:58:12.705Z,8.90
2023-02-24T17:00:41.538Z,12.27
2023-02-24T17:03:38.438Z,10.23
2023-02-24T17:06:08.620Z,8.95
2023-02-24T17:08:36.164Z,13.23
2023-02-24T17:11:04.665Z,13.98
2023-02-24T17:13:32.423Z,10.98
2023-02-24T17:16:01.329Z,8.85
2023-02-24T17:18:28.807Z,9.05
2023-02-24T17:20:56.393Z,7.65
2023-02-24T17:23:23.837Z,7.57
2023-02-24T17:25:54.675Z,9.30
2023-02-24T17:28:26.865Z,12.45
2023-02-24T17:30:54.359Z,7.80
2023-02-24T17:33:22.402Z,9.55
2023-02-24T17:35:49.568Z,9.82
2023-02-24T17:38:19.790Z,7.47
2023-02-24T17:40:48.529Z,16.60
2023-02-24T17:43:16.083Z,19.20
2023-02-24T17:45:45.770Z,11.10
2023-02-24T17:48:14.460Z,7.00
2023-02-24T17:50:43.364Z,6.57
2023-02-24T17:53:10.778Z,8.68
2023-02-24T17:55:38.256Z,28.60
2023-02-24T17:58:08.779Z,19.75
2023-02-24T18:00:36.197Z,7.43
2023-02-24T18:03:03.775Z,11.65
2023-02-24T18:05:31.185Z,24.65
2023-02-24T18:07:59.528Z,12.70
2023-02-24T18:10:27.688Z,24.50
2023-02-24T18:12:55.259Z,13.70
2023-02-24T18:15:22.694Z,14.18
2023-02-24T18:17:53.088Z,19.48
2023-02-24T18:20:20.598Z,13.50
2023-02-24T18:22:47.738Z,10.95
2023-02-24T18:25:15.112Z,24.10
2023-02-24T18:27:42.349Z,8.20
2023-02-24T18:30:10.419Z,23.27
2023-02-24T18:32:44.699Z,11.80
2023-02-24T18:35:14.673Z,14.67
2023-02-24T18:37:42.084Z,17.63
2023-02-24T18:40:10.525Z,15.35
2023-02-24T18:42:39.116Z,16.73
2023-02-24T18:45:06.842Z,18.02
2023-02-24T18:47:34.294Z,16.50
2023-02-24T18:50:01.595Z,29.55
2023-02-24T18:52:29.559Z,19.77
2023-02-24T18:54:57.126Z,16.13
2023-02-24T18:57:24.387Z,51.03
2023-02-24T18:59:51.559Z,38.95
2023-02-24T19:02:19.018Z,21.45
2023-02-24T19:04:54.614Z,13.13
2023-02-24T19:07:22.066Z,20.63
2023-02-24T19:09:50.588Z,14.30
2023-02-24T19:12:19.454Z,28.88
2023-02-24T19:14:46.547Z,18.08
2023-02-24T19:17:13.803Z,46.97
2023-02-24T19:19:41.489Z,29.63
2023-02-24T19:22:08.787Z,26.40
2023-02-24T19:24:36.244Z,17.60
2023-02-24T19:27:03.316Z,31.38
2023-02-24T19:29:30.490Z,35.75
2023-02-24T19:31:58.375Z,31.58
2023-02-24T19:34:25.699Z,27.17
2023-02-24T19:36:56.328Z,26.90
2023-02-24T19:39:23.955Z,50.50
2023-02-24T19:41:51.458Z,25.75
2023-02-24T19:44:18.771Z,30.38
2023-02-24T19:46:46.143Z,27.20
2023-02-24T19:49:16.441Z,25.05
2023-02-24T19:51:46.641Z,35.50
2023-02-24T19:54:16.317Z,32.72
2023-02-24T19:56:44.551Z,23.02
2023-02-24T19:59:11.802Z,19.50
2023-02-24T20:01:39.287Z,41.60
2023-02-24T20:04:07.504Z,35.13
2023-02-24T20:06:37.574Z,22.77
2023-02-24T20:09:16.025Z,20.65
2023-02-24T20:11:48.558Z,33.40
2023-02-24T20:14:18.704Z,41.95
2023-02-24T20:16:49.056Z,28.60
2023-02-24T20:19:17.917Z,19.75
2023-02-24T20:21:45.360Z,24.02
2023-02-24T20:24:15.399Z,20.55
2023-02-24T20:26:47.454Z,22.10
2023-02-24T20:29:16.266Z,28.05
2023-02-24T20:31:43.904Z,30.40
2023-02-24T20:34:11.447Z,38.55
2023-02-24T20:36:39.106Z,26.75
2023-02-24T20:39:12.606Z,26.70
2023-02-24T20:41:40.830Z,24.20
2023-02-24T20:44:09.059Z,26.63
2023-02-24T20:46:38.165Z,26.90
2023-02-24T20:49:08.860Z,29.45
2023-02-24T20:51:37.858Z,28.73
2023-02-24T20:54:11.940Z,32.47
2023-02-24T20:56:42.531Z,43.15
2023-02-24T20:59:19.380Z,26.95
2023-02-24T21:01:48.371Z,19.35
2023-02-24T21:04:19.021Z,21.17
2023-02-24T21:06:48.192Z,22.02
2023-02-24T21:09:16.522Z,21.65
2023-02-24T21:11:46.027Z,28.77
2023-02-24T21:14:18.340Z,26.02
2023-02-24T21:16:48.824Z,9.18
2023-02-24T21:19:18.155Z,14.95
2023-02-24T21:21:45.314Z,13.55
2023-02-24T21:24:12.694Z,24.77
2023-02-24T21:26:39.778Z,20.38
2023-02-24T21:29:07.143Z,10.25
2023-02-24T21:31:34.608Z,29.55
2023-02-24T21:34:01.834Z,23.73
2023-02-24T21:36:29.065Z,12.02
2023-02-24T21:38:56.326Z,17.15
2023-02-24T21:41:27.303Z,20.85
2023-02-24T21:43:55.930Z,12.88
2023-02-24T21:46:29.922Z,11.43
2023-02-24T21:49:00.714Z,8.13
2023-02-24T21:51:30.194Z,7.80
2023-02-24T21:53:58.155Z,16.52
2023-02-24T21:56:29.733Z,11.15
2023-02-24T21:59:02.893Z,6.65
2023-02-24T22:01:36.185Z,16.63
2023-02-24T22:04:12.466Z,11.10
2023-02-24T22:06:40.862Z,13.70
2023-02-24T22:09:09.882Z,8.65
2023-02-24T22:11:41.115Z,11.63
2023-02-24T22:14:13.576Z,6.15
2023-02-24T22:16:41.550Z,4.00
2023-02-24T22:19:09.593Z,6.45
2023-02-24T22:21:38.263Z,2.90
2023-02-24T22:24:05.934Z,2.33
2023-02-24T22:26:33.951Z,3.50
2023-02-24T22:29:02.466Z,1.50
2023-02-24T22:31:32.232Z,5.43
2023-02-24T22:34:01.260Z,1.55
2023-02-24T22:36:31.169Z,2.97
2023-02-24T22:38:59.752Z,2.60
2023-02-24T22:41:31.408Z,0.82
2023-02-24T22:43:59.652Z,4.53
2023-02-24T22:46:30.962Z,4.72
2023-02-24T22:48:58.753Z,2.08
2023-02-24T22:51:26.967Z,2.63
2023-02-24T22:53:59.696Z,1.10
2023-02-24T22:56:29.233Z,3.75
2023-02-24T22:58:56.991Z,1.77
2023-02-24T23:01:30.275Z,4.03
2023-02-24T23:04:01.071Z,1.52
2023-02-24T23:06:28.806Z,3.40
2023-02-24T23:08:58.505Z,3.83
2023-02-24T23:11:27.946Z,9.63
2023-02-24T23:13:56.471Z,1.95
2023-02-24T23:16:27.691Z,4.57
2023-02-24T23:18:58.508Z,0.82
2023-02-24T23:21:33.882Z,0.75
2023-02-24T23:24:01.269Z,5.07
2023-02-24T23:26:34.643Z,3.47
2023-02-24T23:29:02.696Z,2.25
2023-02-24T23:31:29.879Z,3.05
2023-02-24T23:33:57.278Z,1.05
2023-02-24T23:36:25.277Z,2.28
2023-02-24T23:38:53.187Z,2.65
2023-02-24T23:41:20.456Z,2.72
2023-02-24T23:43:47.810Z,5.18
2023-02-24T23:46:15.316Z,2.05
2023-02-24T23:48:42.624Z,2.92
2023-02-24T23:51:13.967Z,3.53
2023-02-24T23:53:43.624Z,1.55
2023-02-24T23:56:13.966Z,1.50
2023-02-24T23:58:41.626Z,9.50
